sensor_id;sensor_type;location;lat;lon;timestamp;P1;durP1;ratioP1;P2;durP2;ratioP2
74967;SDS011;63523;51.880;12.630;2023-01-26T00:00:53;29.07;;;9.83;;
74967;SDS011;63523;51.880;12.630;2023-01-26T00:03:19;29.35;;;9.70;;
74967;SDS011;63523;51.880;12.630;2023-01-26T00:05:45;27.40;;;9.50;;
74967;SDS011;63523;51.880;12.630;2023-01-26T00:08:14;27.90;;;9.73;;
74967;SDS011;63523;51.880;12.630;2023-01-26T00:10:40;27.08;;;9.45;;
74967;SDS011;63523;51.880;12.630;2023-01-26T00:13:06;28.10;;;9.10;;
74967;SDS011;63523;51.880;12.630;2023-01-26T00:15:34;32.28;;;11.27;;
74967;SDS011;63523;51.880;12.630;2023-01-26T00:18:00;41.25;;;14.30;;
74967;SDS011;63523;51.880;12.630;2023-01-26T00:20:29;46.83;;;14.20;;
74967;SDS011;63523;51.880;12.630;2023-01-26T00:22:54;54.38;;;16.20;;
74967;SDS011;63523;51.880;12.630;2023-01-26T00:25:20;48.03;;;14.07;;
74967;SDS011;63523;51.880;12.630;2023-01-26T00:27:46;45.45;;;13.68;;
74967;SDS011;63523;51.880;12.630;2023-01-26T00:30:11;36.70;;;12.03;;
74967;SDS011;63523;51.880;12.630;2023-01-26T00:32:37;36.45;;;12.35;;
74967;SDS011;63523;51.880;12.630;2023-01-26T00:35:03;48.63;;;14.60;;
74967;SDS011;63523;51.880;12.630;2023-01-26T00:37:29;39.10;;;13.18;;
74967;SDS011;63523;51.880;12.630;2023-01-26T00:39:55;43.83;;;13.53;;
74967;SDS011;63523;51.880;12.630;2023-01-26T00:42:20;39.70;;;12.23;;
74967;SDS011;63523;51.880;12.630;2023-01-26T00:44:48;31.85;;;11.23;;
74967;SDS011;63523;51.880;12.630;2023-01-26T00:47:14;32.30;;;11.00;;
74967;SDS011;63523;51.880;12.630;2023-01-26T00:49:41;32.72;;;11.02;;
74967;SDS011;63523;51.880;12.630;2023-01-26T00:52:06;32.30;;;9.93;;
74967;SDS011;63523;51.880;12.630;2023-01-26T00:54:32;27.75;;;8.38;;
74967;SDS011;63523;51.880;12.630;2023-01-26T00:56:57;29.20;;;9.40;;
74967;SDS011;63523;51.880;12.630;2023-01-26T00:59:23;27.65;;;8.98;;
74967;SDS011;63523;51.880;12.630;2023-01-26T01:01:49;27.38;;;8.73;;
74967;SDS011;63523;51.880;12.630;2023-01-26T01:04:18;30.20;;;9.52;;
74967;SDS011;63523;51.880;12.630;2023-01-26T01:06:44;28.90;;;9.07;;
74967;SDS011;63523;51.880;12.630;2023-01-26T01:09:09;31.15;;;9.98;;
74967;SDS011;63523;51.880;12.630;2023-01-26T01:11:35;29.77;;;9.80;;
74967;SDS011;63523;51.880;12.630;2023-01-26T01:14:01;32.05;;;9.57;;
74967;SDS011;63523;51.880;12.630;2023-01-26T01:16:26;27.97;;;8.53;;
74967;SDS011;63523;51.880;12.630;2023-01-26T01:18:53;29.45;;;7.90;;
74967;SDS011;63523;51.880;12.630;2023-01-26T01:21:20;24.35;;;8.55;;
74967;SDS011;63523;51.880;12.630;2023-01-26T01:23:46;25.88;;;8.57;;
74967;SDS011;63523;51.880;12.630;2023-01-26T01:26:12;24.03;;;7.63;;
74967;SDS011;63523;51.880;12.630;2023-01-26T01:28:39;27.27;;;8.68;;
74967;SDS011;63523;51.880;12.630;2023-01-26T01:31:06;27.37;;;7.70;;
74967;SDS011;63523;51.880;12.630;2023-01-26T01:33:33;25.45;;;7.50;;
74967;SDS011;63523;51.880;12.630;2023-01-26T01:35:59;32.45;;;10.07;;
74967;SDS011;63523;51.880;12.630;2023-01-26T01:38:26;28.83;;;9.10;;
74967;SDS011;63523;51.880;12.630;2023-01-26T01:40:53;26.00;;;8.70;;
74967;SDS011;63523;51.880;12.630;2023-01-26T01:43:19;27.92;;;9.10;;
74967;SDS011;63523;51.880;12.630;2023-01-26T01:45:46;26.15;;;8.65;;
74967;SDS011;63523;51.880;12.630;2023-01-26T01:48:14;26.60;;;8.63;;
74967;SDS011;63523;51.880;12.630;2023-01-26T01:51:03;23.88;;;8.55;;
74967;SDS011;63523;51.880;12.630;2023-01-26T01:53:33;23.70;;;7.65;;
74967;SDS011;63523;51.880;12.630;2023-01-26T01:56:10;28.38;;;8.15;;
74967;SDS011;63523;51.880;12.630;2023-01-26T01:58:40;27.33;;;7.90;;
74967;SDS011;63523;51.880;12.630;2023-01-26T02:01:07;27.33;;;8.32;;
74967;SDS011;63523;51.880;12.630;2023-01-26T02:03:33;25.92;;;8.27;;
74967;SDS011;63523;51.880;12.630;2023-01-26T02:06:01;27.48;;;8.60;;
74967;SDS011;63523;51.880;12.630;2023-01-26T02:08:29;26.83;;;8.02;;
74967;SDS011;63523;51.880;12.630;2023-01-26T02:10:58;24.25;;;7.72;;
74967;SDS011;63523;51.880;12.630;2023-01-26T02:13:28;24.20;;;8.23;;
74967;SDS011;63523;51.880;12.630;2023-01-26T02:15:56;24.35;;;7.82;;
74967;SDS011;63523;51.880;12.630;2023-01-26T02:18:23;28.75;;;8.13;;
74967;SDS011;63523;51.880;12.630;2023-01-26T02:20:51;26.53;;;8.30;;
74967;SDS011;63523;51.880;12.630;2023-01-26T02:28:23;28.10;;;8.07;;
74967;SDS011;63523;51.880;12.630;2023-01-26T02:30:50;26.08;;;7.05;;
74967;SDS011;63523;51.880;12.630;2023-01-26T02:33:18;22.17;;;6.20;;
74967;SDS011;63523;51.880;12.630;2023-01-26T02:35:45;22.65;;;6.38;;
74967;SDS011;63523;51.880;12.630;2023-01-26T02:38:11;24.57;;;6.40;;
74967;SDS011;63523;51.880;12.630;2023-01-26T02:40:37;21.73;;;5.80;;
74967;SDS011;63523;51.880;12.630;2023-01-26T02:43:25;22.00;;;5.15;;
74967;SDS011;63523;51.880;12.630;2023-01-26T02:45:52;20.67;;;5.25;;
74967;SDS011;63523;51.880;12.630;2023-01-26T02:48:18;22.05;;;5.15;;
74967;SDS011;63523;51.880;12.630;2023-01-26T02:51:04;19.45;;;5.00;;
74967;SDS011;63523;51.880;12.630;2023-01-26T02:53:29;19.80;;;4.67;;
74967;SDS011;63523;51.880;12.630;2023-01-26T02:55:55;17.17;;;5.05;;
74967;SDS011;63523;51.880;12.630;2023-01-26T02:58:21;19.50;;;5.07;;
74967;SDS011;63523;51.880;12.630;2023-01-26T03:00:46;20.60;;;5.75;;
74967;SDS011;63523;51.880;12.630;2023-01-26T03:03:17;19.50;;;5.33;;
74967;SDS011;63523;51.880;12.630;2023-01-26T03:05:48;20.60;;;5.60;;
74967;SDS011;63523;51.880;12.630;2023-01-26T03:08:14;17.40;;;4.70;;
74967;SDS011;63523;51.880;12.630;2023-01-26T03:10:39;22.90;;;5.97;;
74967;SDS011;63523;51.880;12.630;2023-01-26T03:13:05;16.07;;;4.63;;
74967;SDS011;63523;51.880;12.630;2023-01-26T03:15:31;21.23;;;5.87;;
74967;SDS011;63523;51.880;12.630;2023-01-26T03:18:07;18.83;;;4.70;;
74967;SDS011;63523;51.880;12.630;2023-01-26T03:21:04;16.20;;;4.55;;
74967;SDS011;63523;51.880;12.630;2023-01-26T03:23:50;16.88;;;4.43;;
74967;SDS011;63523;51.880;12.630;2023-01-26T03:26:34;17.45;;;5.00;;
74967;SDS011;63523;51.880;12.630;2023-01-26T03:29:19;15.93;;;4.13;;
74967;SDS011;63523;51.880;12.630;2023-01-26T03:31:45;20.25;;;4.57;;
74967;SDS011;63523;51.880;12.630;2023-01-26T03:34:10;19.60;;;5.23;;
74967;SDS011;63523;51.880;12.630;2023-01-26T03:36:36;18.90;;;5.07;;
74967;SDS011;63523;51.880;12.630;2023-01-26T03:39:02;17.20;;;4.87;;
74967;SDS011;63523;51.880;12.630;2023-01-26T03:41:28;16.58;;;4.82;;
74967;SDS011;63523;51.880;12.630;2023-01-26T03:44:12;14.13;;;4.38;;
74967;SDS011;63523;51.880;12.630;2023-01-26T03:46:56;19.40;;;4.38;;
74967;SDS011;63523;51.880;12.630;2023-01-26T03:49:40;15.02;;;4.35;;
74967;SDS011;63523;51.880;12.630;2023-01-26T03:52:24;17.00;;;4.40;;
74967;SDS011;63523;51.880;12.630;2023-01-26T03:55:08;16.52;;;4.55;;
74967;SDS011;63523;51.880;12.630;2023-01-26T03:57:52;15.95;;;4.43;;
74967;SDS011;63523;51.880;12.630;2023-01-26T04:00:18;17.13;;;4.60;;
74967;SDS011;63523;51.880;12.630;2023-01-26T04:02:43;18.15;;;4.72;;
74967;SDS011;63523;51.880;12.630;2023-01-26T04:05:27;19.33;;;4.80;;
74967;SDS011;63523;51.880;12.630;2023-01-26T04:08:11;15.83;;;4.30;;
74967;SDS011;63523;51.880;12.630;2023-01-26T04:10:51;17.58;;;4.82;;
74967;SDS011;63523;51.880;12.630;2023-01-26T04:13:18;14.65;;;4.05;;
74967;SDS011;63523;51.880;12.630;2023-01-26T04:16:04;16.73;;;4.50;;
74967;SDS011;63523;51.880;12.630;2023-01-26T04:18:49;15.55;;;3.75;;
74967;SDS011;63523;51.880;12.630;2023-01-26T04:21:33;17.23;;;4.63;;
74967;SDS011;63523;51.880;12.630;2023-01-26T04:24:00;16.77;;;4.57;;
74967;SDS011;63523;51.880;12.630;2023-01-26T04:26:27;17.23;;;4.35;;
74967;SDS011;63523;51.880;12.630;2023-01-26T04:29:01;16.08;;;4.32;;
74967;SDS011;63523;51.880;12.630;2023-01-26T04:31:38;16.42;;;4.38;;
74967;SDS011;63523;51.880;12.630;2023-01-26T04:34:05;13.53;;;4.17;;
74967;SDS011;63523;51.880;12.630;2023-01-26T04:36:31;17.38;;;5.00;;
74967;SDS011;63523;51.880;12.630;2023-01-26T04:38:57;15.50;;;4.68;;
74967;SDS011;63523;51.880;12.630;2023-01-26T04:41:22;13.27;;;4.53;;
74967;SDS011;63523;51.880;12.630;2023-01-26T04:43:48;14.52;;;4.05;;
74967;SDS011;63523;51.880;12.630;2023-01-26T04:46:14;18.13;;;5.47;;
74967;SDS011;63523;51.880;12.630;2023-01-26T04:48:40;16.85;;;5.50;;
74967;SDS011;63523;51.880;12.630;2023-01-26T04:51:07;17.40;;;5.93;;
74967;SDS011;63523;51.880;12.630;2023-01-26T04:53:36;18.42;;;5.32;;
74967;SDS011;63523;51.880;12.630;2023-01-26T04:56:01;16.65;;;4.97;;
74967;SDS011;63523;51.880;12.630;2023-01-26T04:58:27;16.93;;;4.80;;
74967;SDS011;63523;51.880;12.630;2023-01-26T05:00:53;16.17;;;4.60;;
74967;SDS011;63523;51.880;12.630;2023-01-26T05:03:20;16.70;;;4.80;;
74967;SDS011;63523;51.880;12.630;2023-01-26T05:05:50;14.48;;;3.53;;
74967;SDS011;63523;51.880;12.630;2023-01-26T05:08:18;14.73;;;4.18;;
74967;SDS011;63523;51.880;12.630;2023-01-26T05:10:44;14.20;;;4.40;;
74967;SDS011;63523;51.880;12.630;2023-01-26T05:13:11;17.67;;;4.45;;
74967;SDS011;63523;51.880;12.630;2023-01-26T05:15:36;14.05;;;4.45;;
74967;SDS011;63523;51.880;12.630;2023-01-26T05:18:02;18.43;;;5.10;;
74967;SDS011;63523;51.880;12.630;2023-01-26T05:20:28;13.57;;;4.28;;
74967;SDS011;63523;51.880;12.630;2023-01-26T05:22:54;16.90;;;4.50;;
74967;SDS011;63523;51.880;12.630;2023-01-26T05:25:19;15.35;;;3.78;;
74967;SDS011;63523;51.880;12.630;2023-01-26T05:27:45;14.87;;;4.43;;
74967;SDS011;63523;51.880;12.630;2023-01-26T05:30:11;16.08;;;5.05;;
74967;SDS011;63523;51.880;12.630;2023-01-26T05:32:37;15.13;;;4.30;;
74967;SDS011;63523;51.880;12.630;2023-01-26T05:35:03;15.87;;;4.03;;
74967;SDS011;63523;51.880;12.630;2023-01-26T05:37:30;17.60;;;5.32;;
74967;SDS011;63523;51.880;12.630;2023-01-26T05:39:56;17.67;;;5.13;;
74967;SDS011;63523;51.880;12.630;2023-01-26T05:42:21;17.73;;;5.03;;
74967;SDS011;63523;51.880;12.630;2023-01-26T05:44:48;21.98;;;6.38;;
74967;SDS011;63523;51.880;12.630;2023-01-26T05:47:14;24.80;;;7.65;;
74967;SDS011;63523;51.880;12.630;2023-01-26T05:49:40;24.60;;;8.55;;
74967;SDS011;63523;51.880;12.630;2023-01-26T05:52:10;25.13;;;7.57;;
74967;SDS011;63523;51.880;12.630;2023-01-26T05:54:41;25.08;;;8.38;;
74967;SDS011;63523;51.880;12.630;2023-01-26T05:57:07;28.27;;;8.35;;
74967;SDS011;63523;51.880;12.630;2023-01-26T05:59:34;21.52;;;6.78;;
74967;SDS011;63523;51.880;12.630;2023-01-26T06:01:59;18.00;;;5.43;;
74967;SDS011;63523;51.880;12.630;2023-01-26T06:04:25;19.38;;;5.75;;
74967;SDS011;63523;51.880;12.630;2023-01-26T06:06:51;17.23;;;4.77;;
74967;SDS011;63523;51.880;12.630;2023-01-26T06:09:18;16.02;;;5.22;;
74967;SDS011;63523;51.880;12.630;2023-01-26T06:11:44;18.08;;;5.25;;
74967;SDS011;63523;51.880;12.630;2023-01-26T06:14:10;14.00;;;3.80;;
74967;SDS011;63523;51.880;12.630;2023-01-26T06:16:36;15.00;;;4.30;;
74967;SDS011;63523;51.880;12.630;2023-01-26T06:19:02;16.30;;;3.95;;
74967;SDS011;63523;51.880;12.630;2023-01-26T06:21:27;13.60;;;3.67;;
74967;SDS011;63523;51.880;12.630;2023-01-26T06:23:53;14.07;;;4.00;;
74967;SDS011;63523;51.880;12.630;2023-01-26T06:26:18;12.83;;;3.53;;
74967;SDS011;63523;51.880;12.630;2023-01-26T06:28:44;14.63;;;3.65;;
74967;SDS011;63523;51.880;12.630;2023-01-26T06:31:10;14.80;;;4.20;;
74967;SDS011;63523;51.880;12.630;2023-01-26T06:33:35;13.00;;;3.95;;
74967;SDS011;63523;51.880;12.630;2023-01-26T06:36:02;13.48;;;3.60;;
74967;SDS011;63523;51.880;12.630;2023-01-26T06:38:29;11.27;;;3.25;;
74967;SDS011;63523;51.880;12.630;2023-01-26T06:40:58;11.13;;;2.80;;
74967;SDS011;63523;51.880;12.630;2023-01-26T06:43:27;9.65;;;3.08;;
74967;SDS011;63523;51.880;12.630;2023-01-26T06:45:54;12.40;;;3.30;;
74967;SDS011;63523;51.880;12.630;2023-01-26T06:48:22;11.20;;;3.00;;
74967;SDS011;63523;51.880;12.630;2023-01-26T06:50:48;10.90;;;3.00;;
74967;SDS011;63523;51.880;12.630;2023-01-26T06:56:23;12.68;;;3.00;;
74967;SDS011;63523;51.880;12.630;2023-01-26T06:58:49;11.90;;;3.20;;
74967;SDS011;63523;51.880;12.630;2023-01-26T07:01:19;9.80;;;2.40;;
74967;SDS011;63523;51.880;12.630;2023-01-26T07:03:53;11.43;;;2.90;;
74967;SDS011;63523;51.880;12.630;2023-01-26T07:06:22;12.02;;;3.10;;
74967;SDS011;63523;51.880;12.630;2023-01-26T07:08:48;10.73;;;3.03;;
74967;SDS011;63523;51.880;12.630;2023-01-26T07:11:13;11.20;;;3.07;;
74967;SDS011;63523;51.880;12.630;2023-01-26T07:13:40;11.82;;;3.47;;
74967;SDS011;63523;51.880;12.630;2023-01-26T07:16:12;12.73;;;2.80;;
74967;SDS011;63523;51.880;12.630;2023-01-26T07:18:40;14.05;;;3.53;;
74967;SDS011;63523;51.880;12.630;2023-01-26T07:21:07;10.23;;;2.95;;
74967;SDS011;63523;51.880;12.630;2023-01-26T07:23:35;11.05;;;2.97;;
74967;SDS011;63523;51.880;12.630;2023-01-26T07:26:00;12.35;;;3.20;;
74967;SDS011;63523;51.880;12.630;2023-01-26T07:28:26;11.07;;;2.90;;
74967;SDS011;63523;51.880;12.630;2023-01-26T07:30:57;10.57;;;2.63;;
74967;SDS011;63523;51.880;12.630;2023-01-26T07:33:23;10.82;;;3.03;;
74967;SDS011;63523;51.880;12.630;2023-01-26T07:35:51;10.80;;;2.93;;
74967;SDS011;63523;51.880;12.630;2023-01-26T07:38:17;12.57;;;3.30;;
74967;SDS011;63523;51.880;12.630;2023-01-26T07:40:43;11.55;;;3.00;;
74967;SDS011;63523;51.880;12.630;2023-01-26T07:43:09;11.87;;;2.87;;
74967;SDS011;63523;51.880;12.630;2023-01-26T07:45:35;11.75;;;2.88;;
74967;SDS011;63523;51.880;12.630;2023-01-26T07:48:00;11.57;;;3.13;;
74967;SDS011;63523;51.880;12.630;2023-01-26T07:50:26;12.37;;;3.33;;
74967;SDS011;63523;51.880;12.630;2023-01-26T07:52:51;11.60;;;3.47;;
74967;SDS011;63523;51.880;12.630;2023-01-26T07:55:17;11.52;;;3.15;;
74967;SDS011;63523;51.880;12.630;2023-01-26T07:57:46;11.40;;;3.38;;
74967;SDS011;63523;51.880;12.630;2023-01-26T08:00:16;11.35;;;3.13;;
74967;SDS011;63523;51.880;12.630;2023-01-26T08:02:42;10.38;;;3.40;;
74967;SDS011;63523;51.880;12.630;2023-01-26T08:05:08;12.23;;;3.90;;
74967;SDS011;63523;51.880;12.630;2023-01-26T08:07:33;9.75;;;2.83;;
74967;SDS011;63523;51.880;12.630;2023-01-26T08:09:59;13.23;;;3.80;;
74967;SDS011;63523;51.880;12.630;2023-01-26T08:12:25;11.65;;;3.08;;
74967;SDS011;63523;51.880;12.630;2023-01-26T08:14:50;10.77;;;3.10;;
74967;SDS011;63523;51.880;12.630;2023-01-26T08:17:16;10.50;;;3.47;;
74967;SDS011;63523;51.880;12.630;2023-01-26T08:19:43;11.90;;;3.50;;
74967;SDS011;63523;51.880;12.630;2023-01-26T08:22:09;10.18;;;3.10;;
74967;SDS011;63523;51.880;12.630;2023-01-26T08:24:35;13.37;;;3.83;;
74967;SDS011;63523;51.880;12.630;2023-01-26T08:27:00;10.43;;;3.40;;
74967;SDS011;63523;51.880;12.630;2023-01-26T08:29:26;11.70;;;3.00;;
74967;SDS011;63523;51.880;12.630;2023-01-26T08:31:51;9.80;;;2.97;;
74967;SDS011;63523;51.880;12.630;2023-01-26T08:34:17;11.63;;;3.63;;
74967;SDS011;63523;51.880;12.630;2023-01-26T08:36:46;12.00;;;3.50;;
74967;SDS011;63523;51.880;12.630;2023-01-26T08:39:12;11.48;;;3.20;;
74967;SDS011;63523;51.880;12.630;2023-01-26T08:41:38;10.80;;;3.17;;
74967;SDS011;63523;51.880;12.630;2023-01-26T08:44:04;9.25;;;3.15;;
74967;SDS011;63523;51.880;12.630;2023-01-26T08:46:30;11.20;;;3.22;;
74967;SDS011;63523;51.880;12.630;2023-01-26T08:48:55;9.30;;;2.83;;
74967;SDS011;63523;51.880;12.630;2023-01-26T08:51:21;10.98;;;3.47;;
74967;SDS011;63523;51.880;12.630;2023-01-26T08:53:46;10.32;;;2.78;;
74967;SDS011;63523;51.880;12.630;2023-01-26T08:56:12;8.70;;;2.60;;
74967;SDS011;63523;51.880;12.630;2023-01-26T08:58:38;11.15;;;3.20;;
74967;SDS011;63523;51.880;12.630;2023-01-26T09:01:04;10.33;;;2.90;;
74967;SDS011;63523;51.880;12.630;2023-01-26T09:03:34;11.63;;;3.40;;
74967;SDS011;63523;51.880;12.630;2023-01-26T09:06:00;9.63;;;2.83;;
74967;SDS011;63523;51.880;12.630;2023-01-26T09:08:28;10.48;;;3.28;;
74967;SDS011;63523;51.880;12.630;2023-01-26T09:10:54;10.23;;;2.90;;
74967;SDS011;63523;51.880;12.630;2023-01-26T09:13:20;11.75;;;3.42;;
74967;SDS011;63523;51.880;12.630;2023-01-26T09:15:45;11.73;;;3.60;;
74967;SDS011;63523;51.880;12.630;2023-01-26T09:18:11;11.40;;;3.13;;
74967;SDS011;63523;51.880;12.630;2023-01-26T09:20:37;13.23;;;3.70;;
74967;SDS011;63523;51.880;12.630;2023-01-26T09:23:03;11.15;;;3.50;;
74967;SDS011;63523;51.880;12.630;2023-01-26T09:25:28;12.27;;;3.53;;
74967;SDS011;63523;51.880;12.630;2023-01-26T09:27:54;11.25;;;3.33;;
74967;SDS011;63523;51.880;12.630;2023-01-26T09:30:20;11.77;;;3.17;;
74967;SDS011;63523;51.880;12.630;2023-01-26T09:32:45;11.77;;;3.50;;
74967;SDS011;63523;51.880;12.630;2023-01-26T09:35:11;11.20;;;3.40;;
74967;SDS011;63523;51.880;12.630;2023-01-26T09:37:37;12.40;;;3.57;;
74967;SDS011;63523;51.880;12.630;2023-01-26T09:40:03;11.98;;;3.75;;
74967;SDS011;63523;51.880;12.630;2023-01-26T09:45:28;16.00;;;4.60;;
74967;SDS011;63523;51.880;12.630;2023-01-26T09:50:56;13.93;;;3.70;;
74967;SDS011;63523;51.880;12.630;2023-01-26T09:53:33;13.02;;;3.95;;
74967;SDS011;63523;51.880;12.630;2023-01-26T09:56:17;11.93;;;3.58;;
74967;SDS011;63523;51.880;12.630;2023-01-26T09:58:46;14.32;;;4.03;;
74967;SDS011;63523;51.880;12.630;2023-01-26T10:04:31;14.43;;;3.50;;
74967;SDS011;63523;51.880;12.630;2023-01-26T10:07:10;14.55;;;4.13;;
74967;SDS011;63523;51.880;12.630;2023-01-26T10:09:37;14.82;;;4.80;;
74967;SDS011;63523;51.880;12.630;2023-01-26T10:12:05;13.98;;;4.22;;
74967;SDS011;63523;51.880;12.630;2023-01-26T10:14:44;11.50;;;3.90;;
74967;SDS011;63523;51.880;12.630;2023-01-26T10:17:15;14.20;;;3.85;;
74967;SDS011;63523;51.880;12.630;2023-01-26T10:19:48;12.48;;;3.70;;
74967;SDS011;63523;51.880;12.630;2023-01-26T10:24:51;13.23;;;4.22;;
74967;SDS011;63523;51.880;12.630;2023-01-26T10:27:19;13.07;;;3.70;;
74967;SDS011;63523;51.880;12.630;2023-01-26T10:29:45;11.45;;;3.40;;
74967;SDS011;63523;51.880;12.630;2023-01-26T10:32:13;12.27;;;3.63;;
74967;SDS011;63523;51.880;12.630;2023-01-26T10:34:41;12.32;;;3.63;;
74967;SDS011;63523;51.880;12.630;2023-01-26T10:42:32;9.77;;;2.78;;
74967;SDS011;63523;51.880;12.630;2023-01-26T10:45:00;8.88;;;2.47;;
74967;SDS011;63523;51.880;12.630;2023-01-26T10:47:28;7.72;;;2.25;;
74967;SDS011;63523;51.880;12.630;2023-01-26T10:53:02;8.38;;;2.67;;
74967;SDS011;63523;51.880;12.630;2023-01-26T10:55:29;8.17;;;2.90;;
74967;SDS011;63523;51.880;12.630;2023-01-26T10:57:57;11.02;;;3.40;;
74967;SDS011;63523;51.880;12.630;2023-01-26T11:00:24;10.00;;;3.17;;
74967;SDS011;63523;51.880;12.630;2023-01-26T11:05:36;9.77;;;2.95;;
74967;SDS011;63523;51.880;12.630;2023-01-26T11:08:01;9.77;;;3.08;;
74967;SDS011;63523;51.880;12.630;2023-01-26T11:10:37;9.07;;;2.80;;
74967;SDS011;63523;51.880;12.630;2023-01-26T11:13:18;9.47;;;2.50;;
74967;SDS011;63523;51.880;12.630;2023-01-26T11:15:46;10.48;;;3.03;;
74967;SDS011;63523;51.880;12.630;2023-01-26T11:32:36;8.60;;;2.70;;
74967;SDS011;63523;51.880;12.630;2023-01-26T11:43:41;8.27;;;2.83;;
74967;SDS011;63523;51.880;12.630;2023-01-26T11:51:36;10.73;;;3.15;;
74967;SDS011;63523;51.880;12.630;2023-01-26T11:54:17;11.97;;;3.67;;
74967;SDS011;63523;51.880;12.630;2023-01-26T11:59:47;11.60;;;3.45;;
74967;SDS011;63523;51.880;12.630;2023-01-26T12:05:14;13.35;;;3.80;;
74967;SDS011;63523;51.880;12.630;2023-01-26T12:16:24;10.88;;;3.08;;
74967;SDS011;63523;51.880;12.630;2023-01-26T12:22:00;9.40;;;2.97;;
74967;SDS011;63523;51.880;12.630;2023-01-26T12:24:34;9.32;;;3.40;;
74967;SDS011;63523;51.880;12.630;2023-01-26T12:27:07;11.55;;;3.92;;
74967;SDS011;63523;51.880;12.630;2023-01-26T12:29:43;12.15;;;4.03;;
74967;SDS011;63523;51.880;12.630;2023-01-26T12:32:16;11.43;;;3.72;;
74967;SDS011;63523;51.880;12.630;2023-01-26T12:34:42;9.33;;;2.97;;
74967;SDS011;63523;51.880;12.630;2023-01-26T12:45:27;13.20;;;4.20;;
74967;SDS011;63523;51.880;12.630;2023-01-26T12:53:14;13.63;;;3.97;;
74967;SDS011;63523;51.880;12.630;2023-01-26T12:58:49;17.30;;;5.38;;
74967;SDS011;63523;51.880;12.630;2023-01-26T13:01:17;14.88;;;4.78;;
74967;SDS011;63523;51.880;12.630;2023-01-26T13:03:49;15.80;;;5.13;;
74967;SDS011;63523;51.880;12.630;2023-01-26T13:06:19;16.60;;;5.87;;
74967;SDS011;63523;51.880;12.630;2023-01-26T13:08:59;16.27;;;5.32;;
74967;SDS011;63523;51.880;12.630;2023-01-26T13:19:50;14.83;;;5.20;;
74967;SDS011;63523;51.880;12.630;2023-01-26T13:27:32;14.50;;;5.63;;
74967;SDS011;63523;51.880;12.630;2023-01-26T13:32:50;17.00;;;5.50;;
74967;SDS011;63523;51.880;12.630;2023-01-26T13:35:20;16.30;;;5.70;;
74967;SDS011;63523;51.880;12.630;2023-01-26T13:37:51;15.70;;;5.18;;
74967;SDS011;63523;51.880;12.630;2023-01-26T13:40:22;17.45;;;5.15;;
74967;SDS011;63523;51.880;12.630;2023-01-26T13:42:59;16.90;;;5.70;;
74967;SDS011;63523;51.880;12.630;2023-01-26T13:45:39;16.98;;;5.93;;
74967;SDS011;63523;51.880;12.630;2023-01-26T13:48:15;15.60;;;5.32;;
74967;SDS011;63523;51.880;12.630;2023-01-26T13:50:47;14.82;;;5.47;;
74967;SDS011;63523;51.880;12.630;2023-01-26T13:53:34;17.33;;;5.50;;
74967;SDS011;63523;51.880;12.630;2023-01-26T13:56:03;16.27;;;5.65;;
74967;SDS011;63523;51.880;12.630;2023-01-26T13:58:30;15.68;;;5.88;;
74967;SDS011;63523;51.880;12.630;2023-01-26T14:01:00;16.33;;;5.22;;
74967;SDS011;63523;51.880;12.630;2023-01-26T14:03:30;18.17;;;5.93;;
74967;SDS011;63523;51.880;12.630;2023-01-26T14:05:56;16.90;;;5.28;;
74967;SDS011;63523;51.880;12.630;2023-01-26T14:08:29;17.42;;;5.35;;
74967;SDS011;63523;51.880;12.630;2023-01-26T14:10:57;16.40;;;5.32;;
74967;SDS011;63523;51.880;12.630;2023-01-26T14:13:36;14.95;;;5.38;;
74967;SDS011;63523;51.880;12.630;2023-01-26T14:16:03;16.07;;;5.40;;
74967;SDS011;63523;51.880;12.630;2023-01-26T14:18:30;28.33;;;9.55;;
74967;SDS011;63523;51.880;12.630;2023-01-26T14:20:57;33.30;;;10.68;;
74967;SDS011;63523;51.880;12.630;2023-01-26T14:23:40;35.30;;;11.40;;
74967;SDS011;63523;51.880;12.630;2023-01-26T14:26:07;34.03;;;10.00;;
74967;SDS011;63523;51.880;12.630;2023-01-26T14:28:42;42.00;;;12.13;;
74967;SDS011;63523;51.880;12.630;2023-01-26T14:31:15;37.72;;;11.00;;
74967;SDS011;63523;51.880;12.630;2023-01-26T14:33:49;34.80;;;10.35;;
74967;SDS011;63523;51.880;12.630;2023-01-26T14:36:22;36.60;;;11.90;;
74967;SDS011;63523;51.880;12.630;2023-01-26T14:38:57;42.95;;;12.07;;
74967;SDS011;63523;51.880;12.630;2023-01-26T14:43:56;37.92;;;11.13;;
74967;SDS011;63523;51.880;12.630;2023-01-26T14:46:30;38.20;;;11.33;;
74967;SDS011;63523;51.880;12.630;2023-01-26T14:49:13;38.92;;;11.05;;
74967;SDS011;63523;51.880;12.630;2023-01-26T14:51:43;40.70;;;12.90;;
74967;SDS011;63523;51.880;12.630;2023-01-26T14:54:13;39.63;;;11.82;;
74967;SDS011;63523;51.880;12.630;2023-01-26T14:56:44;38.97;;;11.95;;
74967;SDS011;63523;51.880;12.630;2023-01-26T14:59:18;22.47;;;7.60;;
74967;SDS011;63523;51.880;12.630;2023-01-26T15:01:46;21.23;;;7.20;;
74967;SDS011;63523;51.880;12.630;2023-01-26T15:04:22;20.15;;;6.65;;
74967;SDS011;63523;51.880;12.630;2023-01-26T15:06:50;23.63;;;7.43;;
74967;SDS011;63523;51.880;12.630;2023-01-26T15:09:20;21.35;;;7.05;;
74967;SDS011;63523;51.880;12.630;2023-01-26T15:11:53;25.45;;;7.88;;
74967;SDS011;63523;51.880;12.630;2023-01-26T15:19:51;22.60;;;7.70;;
74967;SDS011;63523;51.880;12.630;2023-01-26T15:22:21;25.70;;;9.23;;
74967;SDS011;63523;51.880;12.630;2023-01-26T15:27:51;22.33;;;7.93;;
74967;SDS011;63523;51.880;12.630;2023-01-26T15:30:18;21.88;;;7.90;;
74967;SDS011;63523;51.880;12.630;2023-01-26T15:32:50;22.33;;;8.10;;
74967;SDS011;63523;51.880;12.630;2023-01-26T15:35:17;22.63;;;7.18;;
74967;SDS011;63523;51.880;12.630;2023-01-26T15:37:43;22.60;;;7.47;;
74967;SDS011;63523;51.880;12.630;2023-01-26T15:40:09;22.87;;;7.43;;
74967;SDS011;63523;51.880;12.630;2023-01-26T15:42:35;25.20;;;8.23;;
74967;SDS011;63523;51.880;12.630;2023-01-26T15:45:00;24.77;;;8.73;;
74967;SDS011;63523;51.880;12.630;2023-01-26T15:47:26;22.10;;;6.93;;
74967;SDS011;63523;51.880;12.630;2023-01-26T15:49:51;23.38;;;7.35;;
74967;SDS011;63523;51.880;12.630;2023-01-26T15:52:18;29.70;;;8.90;;
74967;SDS011;63523;51.880;12.630;2023-01-26T15:54:49;32.40;;;9.75;;
74967;SDS011;63523;51.880;12.630;2023-01-26T15:57:16;33.83;;;9.88;;
74967;SDS011;63523;51.880;12.630;2023-01-26T15:59:42;31.55;;;9.73;;
74967;SDS011;63523;51.880;12.630;2023-01-26T16:02:14;31.40;;;9.00;;
74967;SDS011;63523;51.880;12.630;2023-01-26T16:04:44;33.72;;;10.43;;
74967;SDS011;63523;51.880;12.630;2023-01-26T16:07:14;36.92;;;9.93;;
74967;SDS011;63523;51.880;12.630;2023-01-26T16:09:41;30.02;;;8.10;;
74967;SDS011;63523;51.880;12.630;2023-01-26T16:12:14;31.90;;;9.35;;
74967;SDS011;63523;51.880;12.630;2023-01-26T16:14:41;31.23;;;8.90;;
74967;SDS011;63523;51.880;12.630;2023-01-26T16:17:13;30.97;;;8.60;;
74967;SDS011;63523;51.880;12.630;2023-01-26T16:19:39;24.90;;;7.57;;
74967;SDS011;63523;51.880;12.630;2023-01-26T16:22:07;25.83;;;7.95;;
74967;SDS011;63523;51.880;12.630;2023-01-26T16:24:33;25.60;;;7.63;;
74967;SDS011;63523;51.880;12.630;2023-01-26T16:26:59;27.17;;;7.03;;
74967;SDS011;63523;51.880;12.630;2023-01-26T16:29:24;23.40;;;7.13;;
74967;SDS011;63523;51.880;12.630;2023-01-26T16:31:50;27.97;;;7.40;;